Time;durP1;ratioP1;P1;durP2;ratioP2;P2;SDS_P1;SDS_P2;PMS_P1;PMS_P2;Temp;Humidity;BMP_temperature;BMP_pressure;BME280_temperature;BME280_humidity;BME280_pressure;Samples;Min_cycle;Max_cycle;Signal;HPM_P1;HPM_P2
2023/11/22 00:01:44;;;;;;;23.23;14.27;;;;;;;7.77;93.56;97978.97;5022183;28;20953;-68
2023/11/22 00:04:12;;;;;;;20.88;13.68;;;;;;;7.86;92.77;97974.72;5027776;28;20033;-64
2023/11/22 00:06:39;;;;;;;22.70;14.25;;;;;;;7.71;92.88;97966.63;5035677;28;20032;-64
2023/11/22 00:09:05;;;;;;;20.63;13.15;;;;;;;7.59;94.52;97957.41;5025084;28;20504;-67
2023/11/22 00:11:30;;;;;;;22.80;13.52;;;;;;;7.65;94.10;97956.84;5021201;28;20035;-65
2023/11/22 00:13:58;;;;;;;18.80;13.05;;;;;;;7.57;94.54;97964.47;5029600;28;21273;-67
2023/11/22 00:16:23;;;;;;;19.30;13.50;;;;;;;7.29;96.06;97957.47;5050560;28;20086;-66
2023/11/22 00:18:49;;;;;;;22.08;13.57;;;;;;;7.50;94.70;97962.47;5019655;28;20029;-65
2023/11/22 00:21:16;;;;;;;20.67;13.10;;;;;;;7.37;94.49;97966.31;5024092;28;20045;-64
2023/11/22 00:23:42;;;;;;;21.05;13.90;;;;;;;7.38;93.59;97963.59;5018640;28;20025;-67
2023/11/22 00:26:11;;;;;;;20.75;13.38;;;;;;;7.36;93.02;97970.69;5031232;28;21025;-66
2023/11/22 00:28:36;;;;;;;21.40;13.93;;;;;;;7.36;92.89;97962.91;5007622;28;20024;-66
2023/11/22 00:31:01;;;;;;;23.73;14.27;;;;;;;7.24;92.67;97964.03;5012616;28;20500;-65
2023/11/22 00:33:27;;;;;;;21.15;13.35;;;;;;;7.21;93.45;97974.63;5022247;28;20553;-65
2023/11/22 00:35:56;;;;;;;21.67;13.40;;;;;;;7.20;93.43;97976.41;5032826;28;21194;-64
2023/11/22 00:38:22;;;;;;;20.75;13.50;;;;;;;7.20;92.74;97976.41;5032598;28;20492;-66
2023/11/22 00:40:47;;;;;;;23.80;14.07;;;;;;;7.14;93.25;97961.47;5017999;28;20106;-65
2023/11/22 00:43:13;;;;;;;21.58;12.82;;;;;;;7.17;92.41;97961.16;5029756;28;20040;-64
2023/11/22 00:45:38;;;;;;;24.23;13.65;;;;;;;7.19;92.71;97955.88;5014410;28;20033;-64
2023/11/22 00:48:04;;;;;;;19.58;12.80;;;;;;;7.07;92.78;97958.63;5032494;28;21038;-66
2023/11/22 00:50:29;;;;;;;23.13;14.00;;;;;;;7.00;92.31;97965.28;5018348;28;20052;-65
2023/11/22 00:52:57;;;;;;;23.60;13.43;;;;;;;7.07;91.95;97965.56;5046622;28;20403;-67
2023/11/22 00:55:22;;;;;;;19.88;13.48;;;;;;;7.03;92.02;97961.63;5032212;28;20032;-65
2023/11/22 00:57:48;;;;;;;20.83;13.63;;;;;;;6.92;92.23;97963.41;5009785;28;20029;-66
2023/11/22 01:00:15;;;;;;;20.58;12.90;;;;;;;6.70;94.04;97967.06;5050748;28;20027;-67
2023/11/22 01:02:42;;;;;;;20.60;12.68;;;;;;;6.73;95.09;97953.91;5028860;28;20040;-66
2023/11/22 01:05:11;;;;;;;20.52;12.73;;;;;;;6.81;96.08;97949.78;5017787;28;20094;-62
2023/11/22 01:07:38;;;;;;;20.77;12.33;;;;;;;6.87;95.35;97944.09;5028587;28;20055;-68
2023/11/22 01:10:10;;;;;;;20.35;12.35;;;;;;;6.62;95.16;97945.44;5019434;28;20283;-67
2023/11/22 01:12:35;;;;;;;18.85;12.73;;;;;;;6.51;96.54;97939.44;5022767;28;20029;-65
2023/11/22 01:15:00;;;;;;;18.17;10.85;;;;;;;6.60;98.62;97926.69;5031468;28;20032;-66
2023/11/22 01:17:28;;;;;;;15.88;9.93;;;;;;;6.64;99.38;97923.69;5033381;28;20135;-68
2023/11/22 01:19:54;;;;;;;16.45;10.68;;;;;;;6.82;100.00;97920.41;5010839;28;20037;-67
2023/11/22 01:22:22;;;;;;;15.35;9.75;;;;;;;6.95;100.00;97918.34;5014541;28;20380;-67
2023/11/22 01:24:47;;;;;;;19.05;11.02;;;;;;;7.03;100.00;97899.59;5007093;28;20541;-67
2023/11/22 01:27:12;;;;;;;17.10;10.18;;;;;;;7.29;100.00;97895.41;5018050;28;20020;-66
2023/11/22 01:29:38;;;;;;;18.55;10.30;;;;;;;7.34;100.00;97889.84;5029641;28;20029;-65
2023/11/22 01:32:04;;;;;;;19.95;10.93;;;;;;;7.69;100.00;97891.72;5033069;28;20025;-66
2023/11/22 01:34:32;;;;;;;16.30;10.23;;;;;;;7.84;100.00;97881.69;5013480;28;20032;-67
2023/11/22 01:36:57;;;;;;;16.75;11.13;;;;;;;8.01;100.00;97881.84;5029630;28;20116;-66
2023/11/22 01:39:26;;;;;;;15.48;10.52;;;;;;;7.99;100.00;97879.41;5041093;28;20021;-66
2023/11/22 01:41:54;;;;;;;17.02;10.75;;;;;;;8.17;98.40;97878.63;5028731;28;20028;-65
2023/11/22 01:44:19;;;;;;;16.75;10.77;;;;;;;8.34;96.28;97884.75;5035995;28;20074;-65
2023/11/22 01:46:45;;;;;;;17.67;10.25;;;;;;;8.33;96.42;97875.38;5030941;28;20250;-67
2023/11/22 01:49:13;;;;;;;18.92;10.20;;;;;;;8.34;97.36;97864.88;5032330;28;20029;-67
2023/11/22 01:51:42;;;;;;;16.15;10.57;;;;;;;8.41;97.66;97875.44;5014793;28;20224;-67
2023/11/22 01:54:12;;;;;;;14.35;10.00;;;;;;;8.26;94.77;97807.81;5026235;28;20552;-64
2023/11/22 01:56:40;;;;;;;12.25;7.80;;;;;;;8.65;94.40;97854.13;5023832;28;20036;-65
2023/11/22 01:59:06;;;;;;;12.35;7.03;;;;;;;9.06;85.39;97861.38;5028847;28;20054;-67
2023/11/22 02:01:32;;;;;;;12.30;5.72;;;;;;;9.10;82.59;97810.81;5034563;28;21092;-67
2023/11/22 02:03:58;;;;;;;9.40;6.15;;;;;;;9.20;81.05;97807.13;5029957;28;20076;-66
2023/11/22 02:06:30;;;;;;;9.35;5.68;;;;;;;9.50;79.82;97837.91;5030944;28;20029;-68
2023/11/22 02:08:56;;;;;;;9.73;5.40;;;;;;;9.66;76.48;97845.75;5033297;28;20562;-67
2023/11/22 02:11:22;;;;;;;9.05;5.30;;;;;;;10.05;71.33;97841.78;5027940;28;20029;-67
2023/11/22 02:13:53;;;;;;;7.97;4.90;;;;;;;10.00;71.81;97821.47;5050391;28;20560;-66
2023/11/22 02:16:19;;;;;;;9.23;5.30;;;;;;;10.05;71.58;97821.00;5032631;28;20601;-67
2023/11/22 02:18:45;;;;;;;8.55;4.93;;;;;;;10.22;69.39;97819.22;5029139;28;21384;-66
2023/11/22 02:21:11;;;;;;;9.13;4.75;;;;;;;10.16;68.05;97820.69;5017058;28;20124;-67
2023/11/22 02:23:39;;;;;;;7.75;4.10;;;;;;;10.43;65.94;97818.78;5027812;28;20025;-67
2023/11/22 02:26:04;;;;;;;6.45;3.80;;;;;;;10.63;63.41;97827.06;5032062;28;20033;-67
2023/11/22 02:28:30;;;;;;;6.85;3.83;;;;;;;10.76;62.97;97835.16;5026720;28;20037;-65
2023/11/22 02:30:57;;;;;;;6.63;3.50;;;;;;;10.46;63.34;97779.44;5031926;28;20048;-65
2023/11/22 02:33:25;;;;;;;5.70;2.83;;;;;;;10.84;61.10;97800.53;5008935;28;20040;-67
2023/11/22 02:35:51;;;;;;;6.10;3.22;;;;;;;10.85;60.56;97818.56;5035564;28;20036;-68
2023/11/22 02:38:21;;;;;;;5.50;2.50;;;;;;;10.96;58.81;97792.19;5030171;28;20090;-66
2023/11/22 02:40:49;;;;;;;5.65;3.03;;;;;;;10.71;58.97;97754.22;5026022;28;20024;-67
2023/11/22 02:43:23;;;;;;;5.82;2.67;;;;;;;11.14;57.78;97798.97;5044466;28;20087;-67
2023/11/22 02:45:50;;;;;;;5.50;3.00;;;;;;;11.15;58.18;97803.19;5017877;28;20025;-68
2023/11/22 02:48:18;;;;;;;5.32;2.70;;;;;;;11.13;59.55;97800.78;5035512;28;20064;-67
2023/11/22 02:50:46;;;;;;;4.68;2.20;;;;;;;11.15;59.00;97779.78;5031804;28;20103;-66
2023/11/22 02:53:12;;;;;;;5.43;1.83;;;;;;;11.34;56.32;97792.38;5031617;28;20140;-67
2023/11/22 02:55:37;;;;;;;4.28;1.60;;;;;;;11.68;54.69;97793.88;5026043;28;20109;-65
2023/11/22 02:58:12;;;;;;;3.85;1.38;;;;;;;11.75;56.53;97788.75;5035893;28;20035;-66
2023/11/22 03:00:42;;;;;;;4.47;1.52;;;;;;;11.84;53.90;97784.31;5043721;28;20086;-67
2023/11/22 03:03:10;;;;;;;4.60;1.20;;;;;;;12.00;53.12;97794.66;5046077;28;20553;-68
2023/11/22 03:08:57;;;;;;;2.95;1.00;;;;;;;12.27;52.10;97797.72;5021349;28;21249;-63
2023/11/22 03:11:25;;;;;;;5.38;1.27;;;;;;;12.48;49.96;97797.88;5029468;28;20040;-65
2023/11/22 03:13:50;;;;;;;3.90;1.38;;;;;;;12.61;51.77;97794.66;5047859;28;20028;-67
2023/11/22 03:16:15;;;;;;;3.17;0.80;;;;;;;12.57;49.27;97792.56;5027270;28;20777;-67
2023/11/22 03:18:41;;;;;;;2.35;0.77;;;;;;;12.69;48.16;97793.78;5028985;28;20029;-68
2023/11/22 03:21:07;;;;;;;3.53;0.90;;;;;;;12.68;51.94;97789.53;5032038;28;20815;-67
2023/11/22 03:23:32;;;;;;;2.22;0.70;;;;;;;12.55;52.73;97784.94;5030323;28;20029;-68
2023/11/22 03:25:58;;;;;;;1.25;0.40;;;;;;;12.62;49.37;97790.25;5029859;28;20017;-66
2023/11/22 03:28:23;;;;;;;1.27;0.47;;;;;;;12.70;49.55;97787.53;5030659;28;20025;-68
2023/11/22 03:30:51;;;;;;;1.20;0.40;;;;;;;12.37;51.80;97748.75;5035002;28;20041;-66
2023/11/22 03:33:16;;;;;;;0.93;0.38;;;;;;;12.58;48.56;97797.63;5037407;28;20025;-69
2023/11/22 03:35:44;;;;;;;1.13;0.30;;;;;;;12.56;45.20;97763.09;5029642;28;20041;-66
2023/11/22 03:38:12;;;;;;;0.68;0.22;;;;;;;12.51;45.14;97752.38;5020636;28;20664;-68
2023/11/22 03:40:38;;;;;;;1.27;0.40;;;;;;;12.80;46.47;97782.88;5030104;28;20090;-67
2023/11/22 03:43:03;;;;;;;0.70;0.30;;;;;;;12.87;46.07;97793.44;5045759;28;20036;-67
2023/11/22 03:45:31;;;;;;;1.17;0.40;;;;;;;13.05;44.70;97785.22;5032157;28;20463;-68
2023/11/22 03:47:59;;;;;;;1.38;0.43;;;;;;;13.07;46.58;97791.91;5036415;28;20052;-68
2023/11/22 03:50:24;;;;;;;2.13;0.60;;;;;;;13.07;47.23;97786.69;5014416;28;20033;-68
2023/11/22 03:52:49;;;;;;;1.63;0.50;;;;;;;12.97;44.72;97773.09;5033683;28;20956;-65
2023/11/22 03:55:17;;;;;;;1.70;0.55;;;;;;;13.03;47.43;97789.81;5032969;28;20024;-67
2023/11/22 03:57:45;;;;;;;1.02;0.30;;;;;;;12.97;45.62;97783.53;5030610;28;20036;-67
2023/11/22 04:00:12;;;;;;;0.88;0.30;;;;;;;12.86;42.84;97755.28;5025811;28;20026;-67
2023/11/22 04:02:37;;;;;;;1.73;0.47;;;;;;;13.07;45.79;97788.50;5015130;28;20048;-67
2023/11/22 04:05:03;;;;;;;2.47;0.50;;;;;;;13.05;43.52;97783.44;5030607;28;20658;-68
2023/11/22 04:07:29;;;;;;;1.75;0.52;;;;;;;12.94;44.25;97756.97;5030302;28;20032;-66
2023/11/22 04:09:54;;;;;;;1.48;0.40;;;;;;;13.30;43.18;97792.78;5033430;28;20028;-68
2023/11/22 04:12:19;;;;;;;1.15;0.40;;;;;;;13.30;43.48;97798.00;5008165;28;20030;-66
2023/11/22 04:14:48;;;;;;;1.85;0.52;;;;;;;13.27;43.85;97796.56;5022948;28;20488;-67
2023/11/22 04:17:13;;;;;;;1.38;0.40;;;;;;;13.39;40.94;97794.31;5028035;28;20107;-67
2023/11/22 04:19:41;;;;;;;2.13;0.55;;;;;;;13.24;46.22;97802.16;5007933;28;20668;-63
2023/11/22 04:22:08;;;;;;;0.98;0.40;;;;;;;13.33;46.14;97803.69;5024600;28;20550;-68
2023/11/22 04:24:34;;;;;;;0.95;0.30;;;;;;;13.21;45.42;97805.91;5027712;28;20058;-67
2023/11/22 04:27:00;;;;;;;1.45;0.50;;;;;;;13.18;47.90;97800.25;5039231;28;21302;-67
2023/11/22 04:29:27;;;;;;;0.88;0.28;;;;;;;13.19;44.59;97804.50;5027204;28;20028;-68
2023/11/22 04:31:55;;;;;;;0.70;0.30;;;;;;;13.27;45.17;97802.59;5023477;28;20130;-65
2023/11/22 04:34:21;;;;;;;0.73;0.30;;;;;;;13.34;43.95;97804.50;5026200;28;20078;-67
2023/11/22 04:36:49;;;;;;;0.55;0.20;;;;;;;13.42;43.31;97809.63;5020775;28;20043;-68
2023/11/22 04:39:15;;;;;;;0.40;0.13;;;;;;;13.48;39.93;97821.16;5027268;28;20086;-68
2023/11/22 04:41:42;;;;;;;0.52;0.10;;;;;;;13.46;41.00;97808.28;5023175;28;20021;-67
2023/11/22 04:44:08;;;;;;;0.65;0.20;;;;;;;13.28;41.08;97780.69;5039628;28;20114;-69
2023/11/22 04:46:33;;;;;;;0.20;0.10;;;;;;;13.43;43.19;97812.06;5025819;28;20045;-69
2023/11/22 04:49:01;;;;;;;0.20;0.10;;;;;;;13.35;41.95;97783.44;5024904;28;20407;-65
2023/11/22 04:51:29;;;;;;;0.47;0.13;;;;;;;13.59;37.93;97815.47;5025556;28;20810;-68
2023/11/22 04:53:56;;;;;;;0.65;0.15;;;;;;;13.59;40.75;97800.59;5024214;28;20057;-67
2023/11/22 04:56:22;;;;;;;0.10;0.10;;;;;;;13.53;40.04;97814.38;5043243;28;20067;-68
2023/11/22 04:58:47;;;;;;;0.40;0.17;;;;;;;13.62;40.27;97817.72;5025583;28;20776;-68
2023/11/22 05:01:13;;;;;;;0.10;0.10;;;;;;;13.62;37.87;97794.19;5008150;28;20031;-66
2023/11/22 05:03:40;;;;;;;0.60;0.20;;;;;;;13.54;39.01;97797.72;5040902;28;20029;-69
2023/11/22 05:06:08;;;;;;;0.15;0.10;;;;;;;13.73;37.46;97825.06;5024604;28;20144;-67
2023/11/22 05:08:36;;;;;;;2.53;0.22;;;;;;;13.74;35.74;97839.72;5025684;28;20025;-67
2023/11/22 05:11:02;;;;;;;0.32;0.10;;;;;;;13.86;35.01;97832.25;5038998;28;21856;-66
2023/11/22 05:13:30;;;;;;;0.73;0.17;;;;;;;13.93;35.64;97837.53;5029880;28;20025;-68
2023/11/22 05:15:57;;;;;;;0.13;0.10;;;;;;;13.77;37.66;97854.25;5024092;28;20060;-68
2023/11/22 05:18:22;;;;;;;0.80;0.20;;;;;;;13.87;35.29;97861.78;5024578;28;20026;-63
2023/11/22 05:20:48;;;;;;;0.10;0.10;;;;;;;13.79;35.27;97866.13;5024059;28;20066;-66
2023/11/22 05:23:14;;;;;;;0.88;0.22;;;;;;;13.84;35.89;97861.16;5024117;28;20150;-68
2023/11/22 05:25:41;;;;;;;0.60;0.20;;;;;;;13.82;37.61;97857.13;5030081;28;20032;-68
2023/11/22 05:28:07;;;;;;;0.30;0.10;;;;;;;13.90;35.12;97869.28;5021864;28;20474;-68
2023/11/22 05:30:32;;;;;;;0.25;0.10;;;;;;;13.65;37.73;97836.44;5013772;28;20025;-69
2023/11/22 05:32:58;;;;;;;0.30;0.20;;;;;;;13.80;35.14;97880.03;5027581;28;20021;-68
2023/11/22 05:35:23;;;;;;;2.03;0.28;;;;;;;13.61;33.77;97843.00;5010082;28;20056;-67
2023/11/22 05:37:49;;;;;;;0.20;0.10;;;;;;;13.81;34.37;97865.94;5027987;28;20027;-68
2023/11/22 05:40:15;;;;;;;0.30;0.10;;;;;;;13.70;32.02;97848.13;5040960;28;20035;-68
2023/11/22 05:42:43;;;;;;;0.52;0.10;;;;;;;13.87;33.10;97854.75;5023005;28;20029;-67
2023/11/22 05:45:09;;;;;;;0.43;0.10;;;;;;;13.98;33.95;97887.44;5021393;28;20024;-66
2023/11/22 05:47:35;;;;;;;0.40;0.20;;;;;;;13.80;36.04;97899.13;5029539;28;20030;-67
2023/11/22 05:50:00;;;;;;;0.68;0.20;;;;;;;13.78;37.62;97900.28;5025328;28;20090;-65
2023/11/22 05:52:28;;;;;;;0.30;0.20;;;;;;;13.74;39.06;97912.88;5005614;28;20080;-67
2023/11/22 05:54:53;;;;;;;1.17;0.25;;;;;;;13.54;38.65;97927.50;5024044;28;20134;-65
2023/11/22 05:57:19;;;;;;;3.15;0.95;;;;;;;12.96;38.12;97937.66;5040415;28;20025;-65
2023/11/22 05:59:46;;;;;;;3.70;1.00;;;;;;;12.29;41.17;97932.09;5024661;28;20488;-68
2023/11/22 06:02:12;;;;;;;4.47;1.23;;;;;;;11.62;43.34;97906.50;5027447;28;20127;-63
2023/11/22 06:04:38;;;;;;;4.63;1.75;;;;;;;11.63;45.25;97936.78;5044076;28;20025;-68
2023/11/22 06:07:04;;;;;;;5.45;2.00;;;;;;;11.30;45.88;97944.66;5008381;28;21517;-68
2023/11/22 06:09:33;;;;;;;3.90;1.50;;;;;;;11.19;47.06;97958.03;5029660;28;20033;-66
2023/11/22 06:11:59;;;;;;;4.50;1.60;;;;;;;10.98;45.87;97923.88;5018136;28;20147;-65
2023/11/22 06:14:29;;;;;;;4.55;1.80;;;;;;;11.16;47.05;97966.94;5021537;28;20033;-65
2023/11/22 06:16:54;;;;;;;4.68;1.85;;;;;;;11.03;47.24;97943.22;5036217;28;20025;-67
2023/11/22 06:19:20;;;;;;;6.15;2.00;;;;;;;11.13;48.96;97995.09;5016292;28;21146;-68
2023/11/22 06:21:46;;;;;;;6.75;1.98;;;;;;;11.03;50.20;97992.66;5012124;28;20056;-66
2023/11/22 06:24:15;;;;;;;5.95;2.40;;;;;;;10.61;51.72;97965.00;5015351;28;20119;-66
2023/11/22 06:26:46;;;;;;;6.30;3.00;;;;;;;10.49;54.23;98005.25;5032612;28;20668;-65
2023/11/22 06:29:11;;;;;;;6.80;3.10;;;;;;;10.53;54.83;98007.41;5031658;28;20439;-66
2023/11/22 06:31:37;;;;;;;7.72;3.70;;;;;;;10.51;55.26;98013.72;5031570;28;20033;-66
2023/11/22 06:34:08;;;;;;;6.45;3.17;;;;;;;10.26;55.75;98020.59;5027419;28;20028;-64
2023/11/22 06:36:33;;;;;;;7.07;3.70;;;;;;;10.18;55.81;97995.38;5021620;28;20522;-67
2023/11/22 06:39:01;;;;;;;7.45;3.50;;;;;;;10.42;55.89;98018.06;5016128;28;20041;-67
2023/11/22 06:41:26;;;;;;;8.77;3.63;;;;;;;10.38;56.99;98027.97;5025510;28;20653;-64
2023/11/22 06:43:52;;;;;;;7.30;3.60;;;;;;;10.15;57.79;98025.09;5031618;28;20099;-66
2023/11/22 06:46:18;;;;;;;8.77;3.30;;;;;;;10.14;57.86;98023.47;5024241;28;20018;-65
2023/11/22 06:48:44;;;;;;;10.57;4.10;;;;;;;10.26;58.96;98030.97;5018965;28;20051;-67
2023/11/22 06:51:12;;;;;;;8.88;4.20;;;;;;;10.13;59.04;98029.66;5017671;28;20033;-67
2023/11/22 06:53:42;;;;;;;9.05;5.20;;;;;;;9.96;61.25;98036.53;5031724;28;20049;-65
2023/11/22 06:56:08;;;;;;;9.68;4.97;;;;;;;10.07;61.50;98037.25;5034382;28;20075;-68
2023/11/22 06:58:34;;;;;;;8.48;4.90;;;;;;;10.04;62.00;98043.56;5030260;28;20029;-68
2023/11/22 07:01:02;;;;;;;8.73;4.78;;;;;;;9.96;61.82;98043.50;5026871;28;20020;-65
2023/11/22 07:03:27;;;;;;;10.52;5.45;;;;;;;9.75;62.69;98043.91;5052010;28;20040;-65
2023/11/22 07:05:55;;;;;;;9.25;4.90;;;;;;;9.74;62.88;98044.84;5055286;28;20751;-68
2023/11/22 07:08:21;;;;;;;11.52;5.10;;;;;;;9.53;63.92;98055.59;5012589;28;20033;-66
2023/11/22 07:10:47;;;;;;;11.57;5.03;;;;;;;9.40;63.92;98027.41;5034505;28;20032;-70
2023/11/22 07:13:15;;;;;;;12.68;5.18;;;;;;;9.80;63.12;98059.81;5011649;28;20036;-70
2023/11/22 07:15:41;;;;;;;11.55;5.72;;;;;;;9.70;64.60;98061.72;5031066;28;20029;-66
2023/11/22 07:18:07;;;;;;;12.50;6.50;;;;;;;9.62;65.40;98065.88;5021517;28;20393;-67
2023/11/22 07:20:36;;;;;;;10.13;5.30;;;;;;;9.35;65.25;98077.19;5032846;28;21113;-68
2023/11/22 07:23:03;;;;;;;10.23;5.72;;;;;;;9.31;65.88;98083.66;5021062;28;20584;-69
2023/11/22 07:25:29;;;;;;;10.13;5.25;;;;;;;9.17;66.42;98086.75;5030310;28;20474;-67
2023/11/22 07:28:00;;;;;;;11.40;5.45;;;;;;;9.20;67.81;98095.06;5037295;28;20032;-67
2023/11/22 07:30:29;;;;;;;10.18;5.68;;;;;;;9.28;68.66;98104.69;5033146;28;20029;-69
2023/11/22 07:32:55;;;;;;;;;;;;;;;9.10;69.28;98078.75;5034683;28;20113;-68
2023/11/22 07:35:22;;;;;;;10.52;5.80;;;;;;;9.29;70.71;98121.06;5018092;28;19912;-69
2023/11/22 07:37:48;;;;;;;12.52;6.53;;;;;;;9.25;71.81;98123.13;5030793;28;20043;-67
2023/11/22 07:40:19;;;;;;;13.73;7.00;;;;;;;9.26;73.15;98117.00;5020141;28;20025;-68
2023/11/22 07:42:44;;;;;;;11.63;7.03;;;;;;;9.35;73.81;98120.50;5015864;28;20556;-69
2023/11/22 07:45:11;;;;;;;13.27;7.07;;;;;;;9.44;73.74;98135.16;5019297;28;20519;-69
2023/11/22 07:47:41;;;;;;;13.13;7.45;;;;;;;9.49;74.12;98145.09;5048726;28;20037;-68
2023/11/22 07:50:11;;;;;;;13.18;7.43;;;;;;;9.36;73.88;98114.31;5035499;28;20029;-68
2023/11/22 07:52:37;;;;;;;;;;;;;;;9.39;75.28;98145.16;5033069;28;20057;-66
2023/11/22 07:55:07;;;;;;;13.88;7.80;;;;;;;9.41;75.71;98138.06;5027300;28;19917;-71
2023/11/22 07:57:34;;;;;;;13.10;7.60;;;;;;;9.15;75.74;98114.63;5025897;28;20025;-71
2023/11/22 08:00:00;;;;;;;14.57;7.93;;;;;;;9.38;75.83;98152.16;5025681;28;20048;-69
2023/11/22 08:02:26;;;;;;;13.45;7.47;;;;;;;9.42;75.24;98153.47;5030222;28;20567;-70
2023/11/22 08:04:52;;;;;;;12.40;7.30;;;;;;;9.55;74.32;98162.69;5028955;28;20033;-69
2023/11/22 08:07:21;;;;;;;14.07;7.28;;;;;;;9.73;73.38;98160.03;5010450;28;20068;-69
2023/11/22 08:09:47;;;;;;;13.93;7.13;;;;;;;9.57;73.29;98139.97;5027200;28;20474;-71
2023/11/22 08:12:15;;;;;;;12.13;6.95;;;;;;;9.65;73.67;98166.00;5027200;28;20031;-71
2023/11/22 08:14:40;;;;;;;11.23;6.47;;;;;;;9.33;74.09;98128.41;5026824;28;20043;-69
2023/11/22 08:17:08;;;;;;;12.32;6.38;;;;;;;9.59;74.59;98164.81;5002837;28;20056;-70
2023/11/22 08:19:39;;;;;;;11.25;7.00;;;;;;;9.70;74.23;98162.97;5026501;28;20067;-69
2023/11/22 08:22:04;;;;;;;9.88;5.07;;;;;;;9.80;70.90;98174.88;5029922;28;20077;-69
2023/11/22 08:24:30;;;;;;;10.75;5.32;;;;;;;9.68;71.25;98178.69;5028872;28;20052;-69
2023/11/22 08:26:55;;;;;;;9.73;5.28;;;;;;;9.72;70.63;98172.22;5025499;28;20033;-70
2023/11/22 08:29:22;;;;;;;9.15;5.00;;;;;;;9.69;70.47;98175.13;5031171;28;20472;-70
2023/11/22 08:31:50;;;;;;;8.13;4.45;;;;;;;9.70;69.06;98184.53;5002020;28;20126;-69
2023/11/22 08:34:18;;;;;;;9.98;4.80;;;;;;;9.65;68.80;98193.72;5027119;28;20025;-69
2023/11/22 08:36:43;;;;;;;8.88;4.25;;;;;;;9.70;70.17;98189.72;5043498;28;20649;-69
2023/11/22 08:39:09;;;;;;;7.85;3.65;;;;;;;9.62;69.05;98193.06;5024073;28;20035;-70
2023/11/22 08:41:37;;;;;;;8.43;3.80;;;;;;;9.73;69.14;98196.38;5027367;28;20033;-67
2023/11/22 08:44:04;;;;;;;7.15;3.20;;;;;;;9.61;69.51;98199.22;5023692;28;20100;-69
2023/11/22 08:46:29;;;;;;;10.57;3.78;;;;;;;9.58;70.45;98204.72;5010028;28;20076;-70
2023/11/22 08:48:56;;;;;;;10.20;4.40;;;;;;;9.65;71.67;98210.13;5027411;28;20160;-69
2023/11/22 08:51:24;;;;;;;8.13;4.10;;;;;;;9.76;72.11;98209.06;5025293;28;20032;-70
2023/11/22 08:53:49;;;;;;;12.43;5.40;;;;;;;9.88;72.32;98199.28;5024630;28;20607;-70
2023/11/22 08:56:15;;;;;;;10.07;4.25;;;;;;;10.02;71.35;98222.13;5005182;28;20028;-70
2023/11/22 08:58:42;;;;;;;8.70;3.55;;;;;;;10.01;67.61;98225.69;5022229;28;21941;-69
2023/11/22 09:01:10;;;;;;;6.72;3.13;;;;;;;9.82;67.57;98201.53;5028740;28;20538;-68
2023/11/22 09:03:36;;;;;;;5.68;2.63;;;;;;;9.97;67.55;98219.16;5009163;28;20021;-70
2023/11/22 09:06:02;;;;;;;5.15;2.13;;;;;;;9.84;61.58;98244.69;5028237;28;20031;-70
2023/11/22 09:08:30;;;;;;;4.40;1.73;;;;;;;9.97;60.16;98232.16;5023628;28;20566;-70
2023/11/22 09:10:58;;;;;;;4.63;1.70;;;;;;;9.83;62.20;98241.28;5024806;28;20098;-70
2023/11/22 09:13:24;;;;;;;4.80;1.60;;;;;;;9.85;60.08;98247.13;5012283;28;20055;-68
2023/11/22 09:15:50;;;;;;;6.03;1.88;;;;;;;9.99;60.07;98251.00;4998273;28;20021;-68
2023/11/22 09:18:18;;;;;;;5.18;1.70;;;;;;;10.07;59.13;98245.03;5030323;28;20108;-70
2023/11/22 09:20:44;;;;;;;5.35;1.90;;;;;;;9.87;60.89;98205.44;4999673;28;20855;-68
2023/11/22 09:23:10;;;;;;;6.55;1.40;;;;;;;10.11;61.29;98241.19;5028361;28;20037;-69
2023/11/22 09:25:36;;;;;;;6.00;1.42;;;;;;;10.09;60.11;98262.09;5008381;28;20032;-70
2023/11/22 09:28:03;;;;;;;4.82;1.30;;;;;;;10.14;59.49;98254.69;5044803;28;20037;-68
2023/11/22 09:30:32;;;;;;;6.93;1.58;;;;;;;10.14;59.13;98259.06;5002680;28;20025;-70
2023/11/22 09:32:58;;;;;;;5.15;1.40;;;;;;;10.12;59.62;98261.00;5027099;28;20022;-70
2023/11/22 09:35:24;;;;;;;4.45;1.20;;;;;;;10.12;60.99;98274.00;5020721;28;20596;-69
2023/11/22 09:37:52;;;;;;;4.85;1.10;;;;;;;10.09;61.29;98279.47;5002303;28;20499;-67
2023/11/22 09:40:18;;;;;;;5.45;1.13;;;;;;;10.09;61.22;98275.09;5027084;28;20036;-70
2023/11/22 09:42:51;;;;;;;4.13;1.23;;;;;;;10.13;59.58;98279.03;5005814;28;20704;-68
2023/11/22 09:45:19;;;;;;;4.40;1.02;;;;;;;10.24;58.70;98296.19;5011920;28;20170;-69
2023/11/22 09:47:45;;;;;;;4.97;1.52;;;;;;;10.28;59.28;98291.50;5002344;28;20017;-71
2023/11/22 09:50:16;;;;;;;5.40;1.20;;;;;;;10.39;60.48;98284.31;5025703;28;20037;-69
2023/11/22 09:52:48;;;;;;;3.38;1.10;;;;;;;10.45;60.86;98295.06;5003039;28;20056;-70
2023/11/22 09:55:17;;;;;;;4.88;1.20;;;;;;;10.52;58.72;98294.31;5019870;28;20029;-70
2023/11/22 09:57:43;;;;;;;6.67;1.73;;;;;;;10.75;58.41;98299.81;5028522;28;20036;-70
2023/11/22 10:00:16;;;;;;;6.75;1.75;;;;;;;10.90;56.98;98318.28;5022933;28;20029;-67
2023/11/22 10:02:42;;;;;;;3.97;1.00;;;;;;;10.97;56.81;98313.28;5026629;28;20150;-71
2023/11/22 10:05:09;;;;;;;5.47;1.60;;;;;;;10.84;59.01;98268.66;5022487;28;20067;-68
2023/11/22 10:07:38;;;;;;;6.50;1.23;;;;;;;11.10;55.63;98300.66;5003091;28;20502;-71
2023/11/22 10:10:05;;;;;;;5.97;1.30;;;;;;;11.15;56.50;98300.16;5021428;28;20046;-70
2023/11/22 10:12:36;;;;;;;4.55;1.40;;;;;;;11.00;56.66;98260.13;5024828;28;20025;-68
2023/11/22 10:15:19;;;;;;;5.65;1.70;;;;;;;11.31;58.25;98278.63;5042233;28;20801;-69
2023/11/22 10:18:00;;;;;;;5.40;1.80;;;;;;;11.55;56.07;98283.06;5022135;28;20025;-68
2023/11/22 10:20:40;;;;;;;4.93;1.85;;;;;;;11.69;56.72;98273.84;5028965;28;20036;-65
2023/11/22 10:23:12;;;;;;;5.72;1.50;;;;;;;11.79;53.51;98276.28;5034331;28;20032;-69
2023/11/22 10:25:51;;;;;;;3.45;1.00;;;;;;;11.95;50.59;98286.75;5025962;28;20100;-69
2023/11/22 10:28:20;;;;;;;5.25;0.88;;;;;;;11.85;51.37;98267.84;5024218;28;20035;-70
2023/11/22 10:30:49;;;;;;;4.07;1.00;;;;;;;11.96;50.50;98285.00;5022067;28;20031;-69
2023/11/22 10:33:15;;;;;;;3.33;1.00;;;;;;;12.28;50.12;98281.56;5023658;28;20032;-71
2023/11/22 10:35:45;;;;;;;4.05;0.90;;;;;;;12.64;47.65;98276.00;5041949;28;20032;-71
2023/11/22 10:38:15;;;;;;;3.50;0.90;;;;;;;12.84;49.03;98263.38;5028282;28;20028;-69
2023/11/22 10:40:44;;;;;;;3.78;0.90;;;;;;;12.90;45.83;98267.94;5024164;28;20047;-69
2023/11/22 10:43:13;;;;;;;2.80;0.80;;;;;;;12.84;45.49;98276.44;5026965;28;20496;-70
2023/11/22 10:45:39;;;;;;;2.47;0.70;;;;;;;12.79;46.31;98273.50;5003120;28;20733;-69
2023/11/22 10:48:08;;;;;;;2.45;0.80;;;;;;;12.83;46.43;98273.03;5025785;28;20271;-68
2023/11/22 10:50:44;;;;;;;3.72;1.10;;;;;;;12.97;46.16;98281.94;5004251;28;20097;-69
2023/11/22 10:53:13;;;;;;;3.55;0.73;;;;;;;12.98;45.50;98307.06;5008838;28;20066;-68
2023/11/22 10:55:44;;;;;;;1.85;0.60;;;;;;;13.40;41.42;98297.31;5011124;28;20033;-68
2023/11/22 10:58:11;;;;;;;2.45;0.63;;;;;;;13.52;40.86;98250.72;5021550;28;20633;-68
2023/11/22 11:00:43;;;;;;;1.60;0.38;;;;;;;14.22;39.59;98288.97;5027211;28;20032;-69
2023/11/22 11:03:16;;;;;;;0.47;0.10;;;;;;;14.66;38.60;98276.97;5028284;28;20062;-67
2023/11/22 11:06:10;;;;;;;0.10;0.10;;;;;;;15.00;33.20;98273.84;5000308;28;20812;-69
2023/11/22 11:08:38;;;;;;;0.60;0.20;;;;;;;15.29;33.58;98282.69;5018204;28;20049;-71
2023/11/22 11:11:04;;;;;;;0.17;0.10;;;;;;;15.40;34.95;98297.91;5017237;28;20900;-69
2023/11/22 11:13:30;;;;;;;0.57;0.17;;;;;;;15.45;32.50;98306.03;5002822;28;20033;-71
2023/11/22 11:15:56;;;;;;;1.08;0.28;;;;;;;15.45;34.57;98297.38;5021235;28;20032;-70
2023/11/22 11:18:21;;;;;;;0.75;0.10;;;;;;;15.39;31.13;98283.22;5027063;28;20792;-71
2023/11/22 11:20:51;;;;;;;2.65;0.50;;;;;;;15.56;32.49;98308.19;5018586;28;20035;-68
2023/11/22 11:23:19;;;;;;;0.75;0.30;;;;;;;15.41;29.30;98270.75;5018984;28;20042;-69
2023/11/22 11:25:47;;;;;;;0.63;0.20;;;;;;;15.87;29.36;98317.63;5003042;28;20055;-70
2023/11/22 11:28:14;;;;;;;0.57;0.20;;;;;;;15.70;31.67;98303.13;4999326;28;20044;-69
2023/11/22 11:30:49;;;;;;;0.20;0.10;;;;;;;15.56;29.32;98289.03;5028939;28;20120;-69
2023/11/22 11:33:19;;;;;;;0.75;0.30;;;;;;;15.75;29.98;98298.97;5022514;28;20037;-69
2023/11/22 11:35:49;;;;;;;0.13;0.10;;;;;;;15.83;31.10;98297.22;5031419;28;20036;-71
2023/11/22 11:38:15;;;;;;;;;;;;;;;15.77;30.13;98288.31;5006811;28;20040;-71